Bellevue, Nebraska
Current Conditions -  °F | °C
As of 7:58 AM on Friday 31 Oct 2014 (Local Time) from KOFF Reporting Station
Clear Clear  
Wind Chill: 19°   Ceiling: Unl
Heat Index: 29°   Visibility: 10mi
Dew Point: 20°   Wind: 12mph
Humidity: 70%   Direction: 350°N
Pressure: 30.53"   Gusts: 20mph
Location:  41.14°N, 95.89°W
Report Text: KOFF 311258Z AUTO 35010G17KT 10SM CLR M02/M07 A3053 RMK AO2 SLP351 T10181066
Loading
Personal Weather Stations






























Interactive Weather Map New forecast layout! Learn more

10-Day Weather Forecast

Advertisements
Track Severe Weather on mobile